createdAt,value
2023-05-14T00:03:44.934Z,11.35
2023-05-14T00:08:07.051Z,10.25
2023-05-14T00:12:30.288Z,10.48
2023-05-14T00:16:52.406Z,10.35
2023-05-14T00:21:14.298Z,9.93
2023-05-14T00:25:36.998Z,9.52
2023-05-14T00:29:59.219Z,10.73
2023-05-14T00:34:21.184Z,10.25
2023-05-14T00:38:43.166Z,12.07
2023-05-14T00:43:05.339Z,11.23
2023-05-14T00:47:27.950Z,11.07
2023-05-14T00:51:49.920Z,11.05
2023-05-14T00:56:12.120Z,10.00
2023-05-14T01:00:34.529Z,11.20
2023-05-14T01:04:57.739Z,10.65
2023-05-14T01:09:37.308Z,11.40
2023-05-14T01:14:44.099Z,11.10
2023-05-14T01:19:19.159Z,10.82
2023-05-14T01:23:41.306Z,12.00
2023-05-14T01:28:20.857Z,12.60
2023-05-14T01:32:48.853Z,12.70
2023-05-14T01:37:13.176Z,12.40
2023-05-14T01:41:37.318Z,12.23
2023-05-14T01:45:59.490Z,11.75
2023-05-14T01:50:22.014Z,12.57
2023-05-14T01:54:43.974Z,11.93
2023-05-14T01:59:06.034Z,11.45
2023-05-14T02:03:28.338Z,10.48
2023-05-14T02:07:51.529Z,10.32
2023-05-14T02:12:13.277Z,9.77
2023-05-14T02:16:35.305Z,11.10
2023-05-14T02:20:58.074Z,10.70
2023-05-14T02:25:19.999Z,10.57
2023-05-14T02:29:42.815Z,9.80
2023-05-14T02:34:06.897Z,10.10
2023-05-14T02:38:28.776Z,8.65
2023-05-14T02:42:51.817Z,9.57
2023-05-14T02:47:13.809Z,9.20
2023-05-14T02:51:35.998Z,8.65
2023-05-14T02:55:58.099Z,9.45
2023-05-14T03:00:20.532Z,8.80
2023-05-14T03:04:43.400Z,9.88
2023-05-14T03:09:05.638Z,10.55
2023-05-14T03:13:27.862Z,10.15
2023-05-14T03:17:49.919Z,10.32
2023-05-14T03:22:12.057Z,10.27
2023-05-14T03:26:34.248Z,10.40
2023-05-14T03:30:56.247Z,10.45
2023-05-14T03:35:18.490Z,10.10
2023-05-14T03:39:40.298Z,9.23
2023-05-14T03:44:02.561Z,9.73
2023-05-14T03:48:25.054Z,9.23
2023-05-14T03:52:47.930Z,9.07
2023-05-14T03:57:09.950Z,8.10
2023-05-14T04:01:31.858Z,8.18
2023-05-14T04:05:53.739Z,7.00
2023-05-14T04:10:16.334Z,7.10
2023-05-14T04:14:38.476Z,6.45
2023-05-14T04:19:04.078Z,5.78
2023-05-14T04:23:26.082Z,5.60
2023-05-14T04:27:47.959Z,5.68
2023-05-14T04:32:10.815Z,5.88
2023-05-14T04:36:32.886Z,5.03
2023-05-14T04:40:54.746Z,4.80
2023-05-14T04:45:17.031Z,5.07
2023-05-14T04:49:38.918Z,4.35
2023-05-14T04:54:01.158Z,4.88
2023-05-14T04:58:24.531Z,4.55
2023-05-14T05:02:46.784Z,4.22
2023-05-14T05:07:09.055Z,4.57
2023-05-14T05:11:31.297Z,5.03
2023-05-14T05:15:53.674Z,6.13
2023-05-14T05:20:15.842Z,6.28
2023-05-14T05:24:37.943Z,5.68
2023-05-14T05:29:00.108Z,6.15
2023-05-14T05:33:21.999Z,5.88
2023-05-14T05:37:45.403Z,5.95
2023-05-14T05:42:08.136Z,6.30
2023-05-14T05:46:30.450Z,5.18
2023-05-14T05:50:52.684Z,5.25
2023-05-14T05:55:14.879Z,5.53
2023-05-14T05:59:37.136Z,5.40
2023-05-14T06:03:58.898Z,5.45
2023-05-14T06:08:21.739Z,5.47
2023-05-14T06:12:44.036Z,5.35
2023-05-14T06:17:06.259Z,5.15
2023-05-14T06:21:28.346Z,4.97
2023-05-14T06:25:51.155Z,4.50
2023-05-14T06:30:14.335Z,4.45
2023-05-14T06:34:36.660Z,4.20
2023-05-14T06:38:58.617Z,3.97
2023-05-14T06:43:21.140Z,3.33
2023-05-14T06:47:43.134Z,3.90
2023-05-14T06:52:05.954Z,3.53
2023-05-14T06:56:28.090Z,3.05
2023-05-14T07:00:50.493Z,2.85
2023-05-14T07:05:12.593Z,3.03
2023-05-14T07:09:34.656Z,3.38
2023-05-14T07:13:56.636Z,3.15
2023-05-14T07:18:18.874Z,3.00
2023-05-14T07:22:41.154Z,3.15
2023-05-14T07:27:03.082Z,2.95
2023-05-14T07:31:25.047Z,2.58
2023-05-14T07:35:47.356Z,2.95
2023-05-14T07:40:10.133Z,2.70
2023-05-14T07:44:32.394Z,3.35
2023-05-14T07:48:54.559Z,2.42
2023-05-14T07:53:16.674Z,2.30
2023-05-14T07:57:39.429Z,2.58
2023-05-14T08:02:01.279Z,2.33
2023-05-14T08:06:23.912Z,2.40
2023-05-14T08:10:45.902Z,2.00
2023-05-14T08:15:10.071Z,2.55
2023-05-14T08:19:33.017Z,2.70
2023-05-14T08:23:55.077Z,2.28
2023-05-14T08:28:17.378Z,2.80
2023-05-14T08:32:39.663Z,3.38
2023-05-14T08:37:03.161Z,2.97
2023-05-14T08:41:25.959Z,2.15
2023-05-14T08:45:53.610Z,2.13
2023-05-14T08:50:16.534Z,2.25
2023-05-14T08:54:40.637Z,1.98
2023-05-14T08:59:02.956Z,2.75
2023-05-14T09:03:25.375Z,2.30
2023-05-14T09:07:47.656Z,2.63
2023-05-14T09:12:10.217Z,2.50
2023-05-14T09:16:32.804Z,2.65
2023-05-14T09:20:54.955Z,2.17
2023-05-14T09:25:17.155Z,2.25
2023-05-14T09:29:39.034Z,2.20
2023-05-14T09:34:01.223Z,2.53
2023-05-14T09:38:29.331Z,3.08
2023-05-14T09:42:51.255Z,2.80
2023-05-14T09:47:15.223Z,2.80
2023-05-14T09:51:38.519Z,4.00
2023-05-14T09:56:00.515Z,3.55
2023-05-14T10:00:23.308Z,3.33
2023-05-14T10:04:46.462Z,3.30
2023-05-14T10:09:17.006Z,3.65
2023-05-14T10:13:42.678Z,3.95
2023-05-14T10:18:16.455Z,4.07
2023-05-14T10:22:38.717Z,4.32
2023-05-14T10:27:01.272Z,5.07
2023-05-14T10:31:55.624Z,5.38
2023-05-14T10:36:21.435Z,3.60
2023-05-14T10:40:44.216Z,4.07
2023-05-14T10:45:09.193Z,4.30
2023-05-14T10:49:42.784Z,4.68
2023-05-14T10:54:08.941Z,4.93
2023-05-14T10:58:35.591Z,3.83
2023-05-14T11:02:58.016Z,3.60
2023-05-14T11:07:30.624Z,3.60
2023-05-14T11:11:53.133Z,2.90
2023-05-14T11:16:23.481Z,3.42
2023-05-14T11:20:46.147Z,3.15
2023-05-14T11:25:09.278Z,3.78
2023-05-14T11:29:31.894Z,4.35
2023-05-14T11:33:54.614Z,3.50
2023-05-14T11:38:19.568Z,3.10
2023-05-14T11:42:41.999Z,3.25
2023-05-14T11:47:05.290Z,3.40
2023-05-14T11:51:27.518Z,3.10
2023-05-14T11:55:49.413Z,3.13
2023-05-14T12:00:21.769Z,3.30
2023-05-14T12:04:45.379Z,2.85
2023-05-14T12:09:07.792Z,2.80
2023-05-14T12:13:33.677Z,2.90
2023-05-14T12:17:55.923Z,3.20
2023-05-14T12:22:20.855Z,3.00
2023-05-14T12:26:51.859Z,2.90
2023-05-14T12:31:15.778Z,2.90
2023-05-14T12:35:37.999Z,2.83
2023-05-14T12:39:59.935Z,3.05
2023-05-14T12:44:22.798Z,2.90
2023-05-14T12:48:44.769Z,3.20
2023-05-14T12:53:07.097Z,2.88
2023-05-14T12:57:30.576Z,2.70
2023-05-14T13:01:52.433Z,2.92
2023-05-14T13:06:14.734Z,2.80
2023-05-14T13:10:37.038Z,3.35
2023-05-14T13:14:59.205Z,3.47
2023-05-14T13:19:21.016Z,3.85
2023-05-14T13:23:43.215Z,3.70
2023-05-14T13:28:05.533Z,3.38
2023-05-14T13:32:27.467Z,4.60
2023-05-14T13:36:50.113Z,3.35
2023-05-14T13:41:12.395Z,3.45
2023-05-14T13:45:34.730Z,3.72
2023-05-14T13:49:56.773Z,3.97
2023-05-14T13:54:18.752Z,4.15
2023-05-14T13:58:40.635Z,4.65
2023-05-14T14:03:02.616Z,4.35
2023-05-14T14:07:24.896Z,5.30
2023-05-14T14:11:47.328Z,4.78
2023-05-14T14:16:10.713Z,5.10
2023-05-14T14:20:33.156Z,4.88
2023-05-14T14:24:55.315Z,5.03
2023-05-14T14:29:17.500Z,4.80
2023-05-14T14:33:39.994Z,4.10
2023-05-14T14:38:02.082Z,3.95
2023-05-14T14:42:24.191Z,4.05
2023-05-14T14:46:48.053Z,3.40
2023-05-14T14:51:10.452Z,4.10
2023-05-14T14:55:32.413Z,4.05
2023-05-14T14:59:54.559Z,4.30
2023-05-14T15:04:16.682Z,4.75
2023-05-14T15:08:38.868Z,4.65
2023-05-14T15:13:01.271Z,5.20
2023-05-14T15:17:23.532Z,5.07
2023-05-14T15:21:45.397Z,5.03
2023-05-14T15:26:07.381Z,6.65
2023-05-14T15:30:29.242Z,6.22
2023-05-14T15:34:51.160Z,5.70
2023-05-14T15:39:13.138Z,5.93
2023-05-14T15:43:35.542Z,6.47
2023-05-14T15:47:57.788Z,5.72
2023-05-14T15:52:19.777Z,7.28
2023-05-14T15:56:42.383Z,10.50
2023-05-14T16:01:04.555Z,6.40
2023-05-14T16:05:26.466Z,6.93
2023-05-14T16:09:48.545Z,7.53
2023-05-14T16:14:10.805Z,8.98
2023-05-14T16:18:34.015Z,10.30
2023-05-14T16:22:55.885Z,9.52
2023-05-14T16:27:19.299Z,9.88
2023-05-14T16:31:41.395Z,10.02
2023-05-14T16:36:04.075Z,9.75
2023-05-14T16:40:26.267Z,9.50
2023-05-14T16:44:48.092Z,10.98
2023-05-14T16:49:10.327Z,10.43
2023-05-14T16:53:32.594Z,11.98
2023-05-14T16:57:54.474Z,9.13
2023-05-14T17:02:16.553Z,11.40
2023-05-14T17:06:38.387Z,9.43
2023-05-14T17:11:00.683Z,8.95
2023-05-14T17:15:22.970Z,8.43
2023-05-14T17:19:48.859Z,9.13
2023-05-14T17:24:10.889Z,10.07
2023-05-14T17:28:33.679Z,9.55
2023-05-14T17:32:56.363Z,10.75
2023-05-14T17:37:18.886Z,11.23
2023-05-14T17:41:42.379Z,10.90
2023-05-14T17:46:05.481Z,11.27
2023-05-14T17:50:27.604Z,10.52
2023-05-14T17:54:49.741Z,11.80
2023-05-14T17:59:11.817Z,12.35
2023-05-14T18:03:34.472Z,13.25
2023-05-14T18:07:58.202Z,13.50
2023-05-14T18:12:20.522Z,14.15
2023-05-14T18:16:42.465Z,14.77
2023-05-14T18:21:04.742Z,15.38
2023-05-14T18:25:27.047Z,16.02
2023-05-14T18:29:49.093Z,15.25
2023-05-14T18:34:12.003Z,16.83
2023-05-14T18:38:33.875Z,18.48
2023-05-14T18:42:56.983Z,18.40
2023-05-14T18:47:19.271Z,19.63
2023-05-14T18:51:41.163Z,20.88
2023-05-14T18:56:03.413Z,20.17
2023-05-14T19:00:25.562Z,21.92
2023-05-14T19:04:52.933Z,21.40
2023-05-14T19:09:20.984Z,21.00
2023-05-14T19:13:46.790Z,18.27
2023-05-14T19:18:08.837Z,18.52
2023-05-14T19:22:31.484Z,19.98
2023-05-14T19:26:53.419Z,22.27
2023-05-14T19:31:15.909Z,20.85
2023-05-14T19:35:37.860Z,22.73
2023-05-14T19:39:59.798Z,21.05
2023-05-14T19:44:22.131Z,21.83
2023-05-14T19:48:43.999Z,23.73
2023-05-14T19:53:05.799Z,26.63
2023-05-14T19:57:27.796Z,27.20
2023-05-14T20:01:49.997Z,23.02
2023-05-14T20:06:12.507Z,14.15
2023-05-14T20:10:34.618Z,12.23
2023-05-14T20:14:56.757Z,17.40
2023-05-14T20:19:21.429Z,13.20
2023-05-14T20:23:43.800Z,10.65
2023-05-14T20:28:06.124Z,5.40
2023-05-14T20:32:28.391Z,3.85
2023-05-14T20:36:52.429Z,3.55
2023-05-14T20:41:15.204Z,3.83
2023-05-14T20:45:37.278Z,4.03
2023-05-14T20:49:59.782Z,3.63
2023-05-14T20:54:21.760Z,4.43
2023-05-14T20:58:43.702Z,4.22
2023-05-14T21:03:05.837Z,4.10
2023-05-14T21:07:28.920Z,3.60
2023-05-14T21:11:52.420Z,3.95
2023-05-14T21:16:14.571Z,3.80
2023-05-14T21:20:36.324Z,4.15
2023-05-14T21:24:58.438Z,4.53
2023-05-14T21:29:20.599Z,3.95
2023-05-14T21:33:42.563Z,4.05
2023-05-14T21:38:04.482Z,3.75
2023-05-14T21:42:26.366Z,4.53
2023-05-14T21:46:48.558Z,3.95
2023-05-14T21:51:10.666Z,4.50
2023-05-14T21:55:32.731Z,4.65
2023-05-14T21:59:54.636Z,4.75
2023-05-14T22:04:17.142Z,5.50
2023-05-14T22:08:39.238Z,5.00
2023-05-14T22:13:01.218Z,6.15
2023-05-14T22:17:23.413Z,5.25
2023-05-14T22:21:45.717Z,5.75
2023-05-14T22:26:07.931Z,7.05
2023-05-14T22:30:29.997Z,6.82
2023-05-14T22:34:52.340Z,7.22
2023-05-14T22:39:14.325Z,6.20
2023-05-14T22:43:36.720Z,5.93
2023-05-14T22:47:59.379Z,6.15
2023-05-14T22:52:21.581Z,6.70
2023-05-14T22:56:43.656Z,6.00
2023-05-14T23:01:05.817Z,6.00
2023-05-14T23:05:27.815Z,6.50
2023-05-14T23:09:49.977Z,5.95
2023-05-14T23:14:12.156Z,6.60
2023-05-14T23:18:34.215Z,6.50
2023-05-14T23:22:56.394Z,6.25
2023-05-14T23:27:18.658Z,6.35
2023-05-14T23:31:41.416Z,6.00
2023-05-14T23:36:03.921Z,6.50
2023-05-14T23:40:26.094Z,5.32
2023-05-14T23:44:48.236Z,6.00
2023-05-14T23:49:10.435Z,5.68
2023-05-14T23:53:32.614Z,5.88
2023-05-14T23:57:54.921Z,6.28
